sensor_id;sensor_type;location;lat;lon;timestamp;P1;durP1;ratioP1;P2;durP2;ratioP2
13244;SDS011;6689;53.400;12.486;2022-09-01T00:00:09;2.83;;;0.82;;
13244;SDS011;6689;53.400;12.486;2022-09-01T00:02:42;0.47;;;0.40;;
13244;SDS011;6689;53.400;12.486;2022-09-01T00:05:13;2.17;;;1.10;;
13244;SDS011;6689;53.400;12.486;2022-09-01T00:07:43;0.95;;;0.52;;
13244;SDS011;6689;53.400;12.486;2022-09-01T00:13:22;0.60;;;0.60;;
13244;SDS011;6689;53.400;12.486;2022-09-01T00:15:52;0.50;;;0.50;;
13244;SDS011;6689;53.400;12.486;2022-09-01T00:18:28;0.40;;;0.40;;
13244;SDS011;6689;53.400;12.486;2022-09-01T00:20:57;0.47;;;0.43;;
13244;SDS011;6689;53.400;12.486;2022-09-01T00:23:26;2.05;;;0.57;;
13244;SDS011;6689;53.400;12.486;2022-09-01T00:25:56;0.52;;;0.52;;
13244;SDS011;6689;53.400;12.486;2022-09-01T00:28:34;32.60;;;30.13;;
13244;SDS011;6689;53.400;12.486;2022-09-01T00:31:03;0.75;;;0.55;;
13244;SDS011;6689;53.400;12.486;2022-09-01T00:33:47;0.80;;;0.60;;
13244;SDS011;6689;53.400;12.486;2022-09-01T00:36:16;2.75;;;0.60;;
13244;SDS011;6689;53.400;12.486;2022-09-01T00:38:52;1.30;;;0.80;;
13244;SDS011;6689;53.400;12.486;2022-09-01T00:41:24;0.98;;;0.60;;
13244;SDS011;6689;53.400;12.486;2022-09-01T00:44:17;1.65;;;0.80;;
13244;SDS011;6689;53.400;12.486;2022-09-01T00:46:52;1.20;;;0.70;;
13244;SDS011;6689;53.400;12.486;2022-09-01T00:49:23;1.23;;;0.68;;
13244;SDS011;6689;53.400;12.486;2022-09-01T00:52:00;4.60;;;0.77;;
13244;SDS011;6689;53.400;12.486;2022-09-01T00:54:32;1.45;;;0.80;;
13244;SDS011;6689;53.400;12.486;2022-09-01T00:57:04;1.02;;;0.70;;
13244;SDS011;6689;53.400;12.486;2022-09-01T00:59:44;0.73;;;0.60;;
13244;SDS011;6689;53.400;12.486;2022-09-01T01:02:29;3.55;;;0.70;;
13244;SDS011;6689;53.400;12.486;2022-09-01T01:05:13;0.77;;;0.70;;
13244;SDS011;6689;53.400;12.486;2022-09-01T01:07:46;0.68;;;0.63;;
13244;SDS011;6689;53.400;12.486;2022-09-01T01:10:15;0.70;;;0.70;;
13244;SDS011;6689;53.400;12.486;2022-09-01T01:12:58;2.58;;;0.90;;
13244;SDS011;6689;53.400;12.486;2022-09-01T01:15:31;0.98;;;0.60;;
13244;SDS011;6689;53.400;12.486;2022-09-01T01:18:12;1.17;;;0.70;;
13244;SDS011;6689;53.400;12.486;2022-09-01T01:20:42;0.85;;;0.70;;
13244;SDS011;6689;53.400;12.486;2022-09-01T01:23:29;0.85;;;0.60;;
13244;SDS011;6689;53.400;12.486;2022-09-01T01:26:07;0.47;;;0.40;;
13244;SDS011;6689;53.400;12.486;2022-09-01T01:28:38;1.13;;;0.87;;
13244;SDS011;6689;53.400;12.486;2022-09-01T01:31:09;1.10;;;0.70;;
13244;SDS011;6689;53.400;12.486;2022-09-01T01:33:53;0.40;;;0.40;;
13244;SDS011;6689;53.400;12.486;2022-09-01T01:36:25;0.98;;;0.57;;
13244;SDS011;6689;53.400;12.486;2022-09-01T01:38:58;7.07;;;1.00;;
13244;SDS011;6689;53.400;12.486;2022-09-01T01:44:24;2.92;;;0.60;;
13244;SDS011;6689;53.400;12.486;2022-09-01T01:46:54;0.98;;;0.60;;
13244;SDS011;6689;53.400;12.486;2022-09-01T01:49:23;1.02;;;0.80;;
13244;SDS011;6689;53.400;12.486;2022-09-01T01:51:58;0.77;;;0.70;;
13244;SDS011;6689;53.400;12.486;2022-09-01T01:54:29;3.85;;;0.63;;
13244;SDS011;6689;53.400;12.486;2022-09-01T01:57:02;1.33;;;0.75;;
13244;SDS011;6689;53.400;12.486;2022-09-01T01:59:30;3.38;;;0.50;;
13244;SDS011;6689;53.400;12.486;2022-09-01T02:01:58;0.70;;;0.52;;
13244;SDS011;6689;53.400;12.486;2022-09-01T02:04:28;0.57;;;0.45;;
13244;SDS011;6689;53.400;12.486;2022-09-01T02:06:58;2.22;;;0.50;;
13244;SDS011;6689;53.400;12.486;2022-09-01T02:09:40;0.47;;;0.40;;
13244;SDS011;6689;53.400;12.486;2022-09-01T02:15:28;1.58;;;0.50;;
13244;SDS011;6689;53.400;12.486;2022-09-01T02:18:07;0.68;;;0.60;;
13244;SDS011;6689;53.400;12.486;2022-09-01T02:20:38;0.77;;;0.70;;
13244;SDS011;6689;53.400;12.486;2022-09-01T02:23:07;1.55;;;0.70;;
13244;SDS011;6689;53.400;12.486;2022-09-01T02:25:40;3.45;;;0.80;;
13244;SDS011;6689;53.400;12.486;2022-09-01T02:31:18;0.93;;;0.75;;
13244;SDS011;6689;53.400;12.486;2022-09-01T02:33:49;1.48;;;1.10;;
13244;SDS011;6689;53.400;12.486;2022-09-01T02:36:18;3.28;;;0.57;;
13244;SDS011;6689;53.400;12.486;2022-09-01T02:39:00;1.17;;;0.70;;
13244;SDS011;6689;53.400;12.486;2022-09-01T02:41:47;0.77;;;0.70;;
13244;SDS011;6689;53.400;12.486;2022-09-01T02:44:28;1.35;;;0.50;;
13244;SDS011;6689;53.400;12.486;2022-09-01T02:47:04;0.40;;;0.40;;
13244;SDS011;6689;53.400;12.486;2022-09-01T02:49:34;0.85;;;0.73;;
13244;SDS011;6689;53.400;12.486;2022-09-01T02:52:03;0.65;;;0.50;;
13244;SDS011;6689;53.400;12.486;2022-09-01T02:54:32;0.85;;;0.32;;
13244;SDS011;6689;53.400;12.486;2022-09-01T02:57:10;0.65;;;0.57;;
13244;SDS011;6689;53.400;12.486;2022-09-01T02:59:42;0.35;;;0.32;;
13244;SDS011;6689;53.400;12.486;2022-09-01T03:02:14;0.75;;;0.38;;
13244;SDS011;6689;53.400;12.486;2022-09-01T03:04:43;1.05;;;0.47;;
13244;SDS011;6689;53.400;12.486;2022-09-01T03:07:20;0.60;;;0.60;;
13244;SDS011;6689;53.400;12.486;2022-09-01T03:09:50;0.40;;;0.40;;
13244;SDS011;6689;53.400;12.486;2022-09-01T03:12:23;0.30;;;0.30;;
13244;SDS011;6689;53.400;12.486;2022-09-01T03:15:03;0.55;;;0.40;;
13244;SDS011;6689;53.400;12.486;2022-09-01T03:17:36;0.30;;;0.30;;
13244;SDS011;6689;53.400;12.486;2022-09-01T03:20:06;0.73;;;0.50;;
13244;SDS011;6689;53.400;12.486;2022-09-01T03:22:48;1.00;;;0.68;;
13244;SDS011;6689;53.400;12.486;2022-09-01T03:25:30;0.60;;;0.50;;
13244;SDS011;6689;53.400;12.486;2022-09-01T03:28:04;0.93;;;0.40;;
13244;SDS011;6689;53.400;12.486;2022-09-01T03:30:38;0.82;;;0.47;;
13244;SDS011;6689;53.400;12.486;2022-09-01T03:33:10;3.92;;;0.70;;
13244;SDS011;6689;53.400;12.486;2022-09-01T03:35:38;1.20;;;0.55;;
13244;SDS011;6689;53.400;12.486;2022-09-01T03:38:14;2.08;;;0.60;;
13244;SDS011;6689;53.400;12.486;2022-09-01T03:40:46;0.68;;;0.50;;
13244;SDS011;6689;53.400;12.486;2022-09-01T03:43:24;1.23;;;0.50;;
13244;SDS011;6689;53.400;12.486;2022-09-01T03:46:10;0.85;;;0.50;;
13244;SDS011;6689;53.400;12.486;2022-09-01T03:48:53;0.47;;;0.47;;
13244;SDS011;6689;53.400;12.486;2022-09-01T03:51:26;0.45;;;0.25;;
13244;SDS011;6689;53.400;12.486;2022-09-01T03:54:08;0.63;;;0.40;;
13244;SDS011;6689;53.400;12.486;2022-09-01T03:56:39;0.38;;;0.38;;
13244;SDS011;6689;53.400;12.486;2022-09-01T03:59:22;0.40;;;0.35;;
13244;SDS011;6689;53.400;12.486;2022-09-01T04:02:09;1.10;;;0.70;;
13244;SDS011;6689;53.400;12.486;2022-09-01T04:04:38;1.00;;;0.65;;
13244;SDS011;6689;53.400;12.486;2022-09-01T04:07:14;1.15;;;0.80;;
13244;SDS011;6689;53.400;12.486;2022-09-01T04:09:44;4.10;;;1.63;;
13244;SDS011;6689;53.400;12.486;2022-09-01T04:12:16;0.45;;;0.40;;
13244;SDS011;6689;53.400;12.486;2022-09-01T04:14:44;0.55;;;0.55;;
13244;SDS011;6689;53.400;12.486;2022-09-01T04:20:14;0.30;;;0.30;;
13244;SDS011;6689;53.400;12.486;2022-09-01T04:22:44;0.55;;;0.52;;
13244;SDS011;6689;53.400;12.486;2022-09-01T04:25:26;2.70;;;0.50;;
13244;SDS011;6689;53.400;12.486;2022-09-01T04:27:54;0.52;;;0.50;;
13244;SDS011;6689;53.400;12.486;2022-09-01T04:30:36;10.63;;;0.50;;
13244;SDS011;6689;53.400;12.486;2022-09-01T04:33:09;0.45;;;0.30;;
13244;SDS011;6689;53.400;12.486;2022-09-01T04:35:42;0.70;;;0.52;;
13244;SDS011;6689;53.400;12.486;2022-09-01T04:38:16;0.50;;;0.40;;
13244;SDS011;6689;53.400;12.486;2022-09-01T04:40:47;104.80;;;80.47;;
13244;SDS011;6689;53.400;12.486;2022-09-01T04:43:30;1.33;;;0.90;;
13244;SDS011;6689;53.400;12.486;2022-09-01T04:46:06;0.70;;;0.70;;
13244;SDS011;6689;53.400;12.486;2022-09-01T04:49:01;0.90;;;0.88;;
13244;SDS011;6689;53.400;12.486;2022-09-01T04:51:36;1.25;;;0.90;;
13244;SDS011;6689;53.400;12.486;2022-09-01T04:54:08;1.35;;;0.77;;
13244;SDS011;6689;53.400;12.486;2022-09-01T04:56:41;0.80;;;0.80;;
13244;SDS011;6689;53.400;12.486;2022-09-01T04:59:12;5.20;;;0.93;;
13244;SDS011;6689;53.400;12.486;2022-09-01T05:01:40;2.35;;;0.95;;
13244;SDS011;6689;53.400;12.486;2022-09-01T05:04:21;0.70;;;0.60;;
13244;SDS011;6689;53.400;12.486;2022-09-01T05:06:52;0.95;;;0.68;;
13244;SDS011;6689;53.400;12.486;2022-09-01T05:09:26;1.20;;;1.10;;
13244;SDS011;6689;53.400;12.486;2022-09-01T05:12:00;2.00;;;0.95;;
13244;SDS011;6689;53.400;12.486;2022-09-01T05:14:47;0.70;;;0.70;;
13244;SDS011;6689;53.400;12.486;2022-09-01T05:17:16;5.68;;;0.93;;
13244;SDS011;6689;53.400;12.486;2022-09-01T05:23:01;1.33;;;0.80;;
13244;SDS011;6689;53.400;12.486;2022-09-01T05:25:36;2.45;;;1.20;;
13244;SDS011;6689;53.400;12.486;2022-09-01T05:28:06;0.77;;;0.73;;
13244;SDS011;6689;53.400;12.486;2022-09-01T05:30:37;1.10;;;0.90;;
13244;SDS011;6689;53.400;12.486;2022-09-01T05:33:07;0.98;;;0.70;;
13244;SDS011;6689;53.400;12.486;2022-09-01T05:35:41;0.82;;;0.63;;
13244;SDS011;6689;53.400;12.486;2022-09-01T05:41:17;0.93;;;0.82;;
13244;SDS011;6689;53.400;12.486;2022-09-01T05:43:54;1.35;;;1.00;;
13244;SDS011;6689;53.400;12.486;2022-09-01T05:46:23;1.58;;;0.85;;
13244;SDS011;6689;53.400;12.486;2022-09-01T05:48:56;0.95;;;0.77;;
13244;SDS011;6689;53.400;12.486;2022-09-01T05:51:25;1.35;;;1.02;;
13244;SDS011;6689;53.400;12.486;2022-09-01T05:53:59;4.25;;;1.23;;
13244;SDS011;6689;53.400;12.486;2022-09-01T05:56:42;1999.90;;;999.90;;
13244;SDS011;6689;53.400;12.486;2022-09-01T05:59:10;1999.90;;;999.90;;
13244;SDS011;6689;53.400;12.486;2022-09-01T06:01:52;1999.90;;;999.90;;
13244;SDS011;6689;53.400;12.486;2022-09-01T06:04:32;1999.90;;;999.90;;
13244;SDS011;6689;53.400;12.486;2022-09-01T06:07:02;1999.90;;;999.90;;
13244;SDS011;6689;53.400;12.486;2022-09-01T06:09:43;1999.90;;;999.90;;
13244;SDS011;6689;53.400;12.486;2022-09-01T06:12:12;1999.90;;;999.90;;
13244;SDS011;6689;53.400;12.486;2022-09-01T06:14:48;1999.90;;;999.90;;
13244;SDS011;6689;53.400;12.486;2022-09-01T06:17:26;1999.90;;;999.90;;
13244;SDS011;6689;53.400;12.486;2022-09-01T06:19:56;1999.90;;;999.90;;
13244;SDS011;6689;53.400;12.486;2022-09-01T06:22:35;1999.90;;;999.90;;
13244;SDS011;6689;53.400;12.486;2022-09-01T06:28:16;1999.90;;;999.90;;
13244;SDS011;6689;53.400;12.486;2022-09-01T06:30:48;55.85;;;35.53;;
13244;SDS011;6689;53.400;12.486;2022-09-01T06:33:21;15.65;;;14.95;;
13244;SDS011;6689;53.400;12.486;2022-09-01T06:36:02;15.40;;;14.70;;
13244;SDS011;6689;53.400;12.486;2022-09-01T06:38:32;13.18;;;12.57;;
13244;SDS011;6689;53.400;12.486;2022-09-01T06:44:26;14.48;;;13.88;;
13244;SDS011;6689;53.400;12.486;2022-09-01T06:47:08;14.25;;;13.65;;
13244;SDS011;6689;53.400;12.486;2022-09-01T06:49:40;13.68;;;13.07;;
13244;SDS011;6689;53.400;12.486;2022-09-01T06:52:22;14.45;;;13.85;;
13244;SDS011;6689;53.400;12.486;2022-09-01T06:54:50;14.07;;;13.48;;
13244;SDS011;6689;53.400;12.486;2022-09-01T06:57:22;14.90;;;14.30;;
13244;SDS011;6689;53.400;12.486;2022-09-01T07:00:01;66.03;;;62.72;;
13244;SDS011;6689;53.400;12.486;2022-09-01T07:02:43;42.90;;;39.78;;
13244;SDS011;6689;53.400;12.486;2022-09-01T07:05:17;2.10;;;2.00;;
13244;SDS011;6689;53.400;12.486;2022-09-01T07:07:46;1.10;;;1.10;;
13244;SDS011;6689;53.400;12.486;2022-09-01T07:10:16;0.93;;;0.93;;
13244;SDS011;6689;53.400;12.486;2022-09-01T07:12:58;1.00;;;1.00;;
13244;SDS011;6689;53.400;12.486;2022-09-01T07:18:23;0.80;;;0.80;;
13244;SDS011;6689;53.400;12.486;2022-09-01T07:20:56;0.80;;;0.80;;
13244;SDS011;6689;53.400;12.486;2022-09-01T07:23:26;0.80;;;0.80;;
13244;SDS011;6689;53.400;12.486;2022-09-01T07:25:56;0.60;;;0.60;;
13244;SDS011;6689;53.400;12.486;2022-09-01T07:28:32;0.90;;;0.90;;
13244;SDS011;6689;53.400;12.486;2022-09-01T07:31:02;0.80;;;0.80;;
13244;SDS011;6689;53.400;12.486;2022-09-01T07:33:44;0.90;;;0.90;;
13244;SDS011;6689;53.400;12.486;2022-09-01T07:36:26;0.70;;;0.70;;
13244;SDS011;6689;53.400;12.486;2022-09-01T07:38:56;1.30;;;1.30;;
13244;SDS011;6689;53.400;12.486;2022-09-01T07:41:38;1.20;;;1.20;;
13244;SDS011;6689;53.400;12.486;2022-09-01T07:44:07;1.30;;;1.30;;
13244;SDS011;6689;53.400;12.486;2022-09-01T07:46:52;0.77;;;0.77;;
13244;SDS011;6689;53.400;12.486;2022-09-01T07:49:21;1.10;;;1.10;;
13244;SDS011;6689;53.400;12.486;2022-09-01T07:52:02;0.98;;;0.98;;
13244;SDS011;6689;53.400;12.486;2022-09-01T07:54:32;1.20;;;1.20;;
13244;SDS011;6689;53.400;12.486;2022-09-01T07:57:01;1.23;;;1.23;;
13244;SDS011;6689;53.400;12.486;2022-09-01T07:59:32;1.40;;;1.30;;
13244;SDS011;6689;53.400;12.486;2022-09-01T08:02:12;1.60;;;1.50;;
13244;SDS011;6689;53.400;12.486;2022-09-01T08:04:42;1.00;;;1.00;;
13244;SDS011;6689;53.400;12.486;2022-09-01T08:07:12;1.70;;;1.60;;
13244;SDS011;6689;53.400;12.486;2022-09-01T08:09:48;1.38;;;1.30;;
13244;SDS011;6689;53.400;12.486;2022-09-01T08:12:18;2.55;;;2.45;;
13244;SDS011;6689;53.400;12.486;2022-09-01T08:14:48;2.10;;;2.00;;
13244;SDS011;6689;53.400;12.486;2022-09-01T08:20:12;2.22;;;2.13;;
13244;SDS011;6689;53.400;12.486;2022-09-01T08:22:44;2.30;;;2.20;;
13244;SDS011;6689;53.400;12.486;2022-09-01T08:25:16;2.40;;;2.30;;
13244;SDS011;6689;53.400;12.486;2022-09-01T08:27:48;2.72;;;2.53;;
13244;SDS011;6689;53.400;12.486;2022-09-01T08:30:17;2.40;;;2.30;;
13244;SDS011;6689;53.400;12.486;2022-09-01T08:33:03;2.30;;;2.20;;
13244;SDS011;6689;53.400;12.486;2022-09-01T08:35:37;2.20;;;2.10;;
13244;SDS011;6689;53.400;12.486;2022-09-01T08:38:18;2.10;;;2.00;;
13244;SDS011;6689;53.400;12.486;2022-09-01T08:40:49;2.28;;;2.17;;
13244;SDS011;6689;53.400;12.486;2022-09-01T08:43:24;2.20;;;2.10;;
13244;SDS011;6689;53.400;12.486;2022-09-01T08:46:07;2.20;;;2.10;;
13244;SDS011;6689;53.400;12.486;2022-09-01T08:48:53;2.00;;;1.90;;
13244;SDS011;6689;53.400;12.486;2022-09-01T08:51:23;2.00;;;1.90;;
13244;SDS011;6689;53.400;12.486;2022-09-01T08:53:58;2.03;;;1.92;;
13244;SDS011;6689;53.400;12.486;2022-09-01T08:56:32;1.20;;;1.20;;
13244;SDS011;6689;53.400;12.486;2022-09-01T08:59:18;1.45;;;1.35;;
13244;SDS011;6689;53.400;12.486;2022-09-01T09:01:48;1.50;;;1.40;;
13244;SDS011;6689;53.400;12.486;2022-09-01T09:04:34;1.30;;;1.30;;
13244;SDS011;6689;53.400;12.486;2022-09-01T09:07:15;1.30;;;1.30;;
13244;SDS011;6689;53.400;12.486;2022-09-01T09:10:02;1.50;;;1.40;;
13244;SDS011;6689;53.400;12.486;2022-09-01T09:12:37;1.50;;;1.40;;
13244;SDS011;6689;53.400;12.486;2022-09-01T09:15:31;0.82;;;0.82;;
13244;SDS011;6689;53.400;12.486;2022-09-01T09:18:10;0.88;;;0.88;;
13244;SDS011;6689;53.400;12.486;2022-09-01T09:20:48;0.80;;;0.80;;
13244;SDS011;6689;53.400;12.486;2022-09-01T09:23:33;1.60;;;1.50;;
13244;SDS011;6689;53.400;12.486;2022-09-01T09:26:07;0.75;;;0.75;;
13244;SDS011;6689;53.400;12.486;2022-09-01T09:28:45;0.80;;;0.80;;
13244;SDS011;6689;53.400;12.486;2022-09-01T09:31:27;0.85;;;0.85;;
13244;SDS011;6689;53.400;12.486;2022-09-01T09:34:15;0.90;;;0.90;;
13244;SDS011;6689;53.400;12.486;2022-09-01T09:40:09;0.80;;;0.80;;
13244;SDS011;6689;53.400;12.486;2022-09-01T09:42:40;1.70;;;1.60;;
13244;SDS011;6689;53.400;12.486;2022-09-01T09:45:25;1.50;;;1.40;;
13244;SDS011;6689;53.400;12.486;2022-09-01T09:47:59;1.48;;;1.38;;
13244;SDS011;6689;53.400;12.486;2022-09-01T09:50:33;1.35;;;1.30;;
13244;SDS011;6689;53.400;12.486;2022-09-01T09:53:14;0.70;;;0.70;;
13244;SDS011;6689;53.400;12.486;2022-09-01T09:55:59;0.80;;;0.80;;
13244;SDS011;6689;53.400;12.486;2022-09-01T09:58:44;0.82;;;0.82;;
13244;SDS011;6689;53.400;12.486;2022-09-01T10:01:14;0.80;;;0.80;;
13244;SDS011;6689;53.400;12.486;2022-09-01T10:04:02;0.70;;;0.70;;
13244;SDS011;6689;53.400;12.486;2022-09-01T10:06:33;1.70;;;1.60;;
13244;SDS011;6689;53.400;12.486;2022-09-01T10:12:03;1.55;;;1.45;;
13244;SDS011;6689;53.400;12.486;2022-09-01T10:14:34;1.30;;;1.30;;
13244;SDS011;6689;53.400;12.486;2022-09-01T10:17:10;0.98;;;0.98;;
13244;SDS011;6689;53.400;12.486;2022-09-01T10:19:47;1.00;;;1.00;;
13244;SDS011;6689;53.400;12.486;2022-09-01T10:22:18;0.98;;;0.98;;
13244;SDS011;6689;53.400;12.486;2022-09-01T10:25:00;0.70;;;0.70;;
13244;SDS011;6689;53.400;12.486;2022-09-01T10:30:18;1.30;;;1.30;;
13244;SDS011;6689;53.400;12.486;2022-09-01T10:32:50;1.10;;;1.10;;
13244;SDS011;6689;53.400;12.486;2022-09-01T10:35:23;0.80;;;0.80;;
13244;SDS011;6689;53.400;12.486;2022-09-01T10:38:00;1.10;;;1.10;;
13244;SDS011;6689;53.400;12.486;2022-09-01T10:40:38;1.40;;;1.30;;
13244;SDS011;6689;53.400;12.486;2022-09-01T10:49:28;1.60;;;1.50;;
13244;SDS011;6689;53.400;12.486;2022-09-01T10:55:24;1.33;;;1.30;;
13244;SDS011;6689;53.400;12.486;2022-09-01T10:58:28;1.50;;;1.40;;
13244;SDS011;6689;53.400;12.486;2022-09-01T11:05:08;1.00;;;1.00;;
13244;SDS011;6689;53.400;12.486;2022-09-01T11:07:45;1.23;;;1.23;;
13244;SDS011;6689;53.400;12.486;2022-09-01T11:10:22;1.20;;;1.20;;
13244;SDS011;6689;53.400;12.486;2022-09-01T11:13:30;0.88;;;0.88;;
13244;SDS011;6689;53.400;12.486;2022-09-01T11:16:25;1.10;;;1.10;;
13244;SDS011;6689;53.400;12.486;2022-09-01T11:22:38;1.10;;;1.10;;
13244;SDS011;6689;53.400;12.486;2022-09-01T11:25:13;1.10;;;1.10;;
13244;SDS011;6689;53.400;12.486;2022-09-01T11:31:22;1.50;;;1.40;;
13244;SDS011;6689;53.400;12.486;2022-09-01T11:34:03;1.40;;;1.30;;
13244;SDS011;6689;53.400;12.486;2022-09-01T11:36:51;1.20;;;1.20;;
13244;SDS011;6689;53.400;12.486;2022-09-01T11:46:07;0.90;;;0.90;;
13244;SDS011;6689;53.400;12.486;2022-09-01T11:48:50;0.95;;;0.95;;
13244;SDS011;6689;53.400;12.486;2022-09-01T11:51:40;0.90;;;0.90;;
13244;SDS011;6689;53.400;12.486;2022-09-01T11:54:19;0.70;;;0.70;;
13244;SDS011;6689;53.400;12.486;2022-09-01T11:56:54;0.90;;;0.90;;
13244;SDS011;6689;53.400;12.486;2022-09-01T11:59:36;0.80;;;0.80;;
13244;SDS011;6689;53.400;12.486;2022-09-01T12:02:10;0.80;;;0.80;;
13244;SDS011;6689;53.400;12.486;2022-09-01T12:04:45;0.80;;;0.80;;
13244;SDS011;6689;53.400;12.486;2022-09-01T12:07:22;0.90;;;0.90;;
13244;SDS011;6689;53.400;12.486;2022-09-01T12:09:54;0.93;;;0.93;;
13244;SDS011;6689;53.400;12.486;2022-09-01T12:12:31;0.90;;;0.90;;
13244;SDS011;6689;53.400;12.486;2022-09-01T12:15:13;0.80;;;0.80;;
13244;SDS011;6689;53.400;12.486;2022-09-01T12:17:46;0.90;;;0.90;;
13244;SDS011;6689;53.400;12.486;2022-09-01T12:20:19;0.90;;;0.90;;
13244;SDS011;6689;53.400;12.486;2022-09-01T12:23:00;0.90;;;0.90;;
13244;SDS011;6689;53.400;12.486;2022-09-01T12:25:44;0.70;;;0.70;;
13244;SDS011;6689;53.400;12.486;2022-09-01T12:28:14;0.80;;;0.80;;
13244;SDS011;6689;53.400;12.486;2022-09-01T12:30:44;0.80;;;0.80;;
13244;SDS011;6689;53.400;12.486;2022-09-01T12:38:55;1.05;;;1.05;;
13244;SDS011;6689;53.400;12.486;2022-09-01T12:41:44;4.70;;;4.50;;
13244;SDS011;6689;53.400;12.486;2022-09-01T12:44:27;0.90;;;0.90;;
13244;SDS011;6689;53.400;12.486;2022-09-01T12:46:57;1.00;;;1.00;;
13244;SDS011;6689;53.400;12.486;2022-09-01T12:49:32;1.00;;;1.00;;
13244;SDS011;6689;53.400;12.486;2022-09-01T12:52:06;0.90;;;0.90;;
13244;SDS011;6689;53.400;12.486;2022-09-01T12:54:46;0.98;;;0.98;;
13244;SDS011;6689;53.400;12.486;2022-09-01T12:57:22;1.20;;;1.20;;
13244;SDS011;6689;53.400;12.486;2022-09-01T13:00:08;1.20;;;1.20;;
13244;SDS011;6689;53.400;12.486;2022-09-01T13:02:42;1.10;;;1.10;;
13244;SDS011;6689;53.400;12.486;2022-09-01T13:05:35;1.10;;;1.10;;
13244;SDS011;6689;53.400;12.486;2022-09-01T13:08:11;4.45;;;4.25;;
13244;SDS011;6689;53.400;12.486;2022-09-01T13:10:44;1.00;;;1.00;;
13244;SDS011;6689;53.400;12.486;2022-09-01T13:13:15;1.00;;;1.00;;
13244;SDS011;6689;53.400;12.486;2022-09-01T13:15:45;1.10;;;1.10;;
13244;SDS011;6689;53.400;12.486;2022-09-01T13:18:22;1.10;;;1.10;;
13244;SDS011;6689;53.400;12.486;2022-09-01T13:20:57;1.10;;;1.10;;
13244;SDS011;6689;53.400;12.486;2022-09-01T13:23:28;5.18;;;4.97;;
13244;SDS011;6689;53.400;12.486;2022-09-01T13:26:10;0.80;;;0.80;;
13244;SDS011;6689;53.400;12.486;2022-09-01T13:28:46;0.90;;;0.90;;
13244;SDS011;6689;53.400;12.486;2022-09-01T13:31:15;0.90;;;0.90;;
13244;SDS011;6689;53.400;12.486;2022-09-01T13:33:56;0.90;;;0.90;;
13244;SDS011;6689;53.400;12.486;2022-09-01T13:36:26;0.90;;;0.90;;
13244;SDS011;6689;53.400;12.486;2022-09-01T13:38:56;0.90;;;0.90;;
13244;SDS011;6689;53.400;12.486;2022-09-01T13:41:26;0.70;;;0.70;;
13244;SDS011;6689;53.400;12.486;2022-09-01T13:43:56;0.90;;;0.90;;
13244;SDS011;6689;53.400;12.486;2022-09-01T13:46:38;0.90;;;0.90;;
13244;SDS011;6689;53.400;12.486;2022-09-01T13:49:10;0.90;;;0.90;;
13244;SDS011;6689;53.400;12.486;2022-09-01T13:54:32;1.00;;;1.00;;
13244;SDS011;6689;53.400;12.486;2022-09-01T13:57:02;0.90;;;0.90;;
13244;SDS011;6689;53.400;12.486;2022-09-01T13:59:31;0.98;;;0.98;;
13244;SDS011;6689;53.400;12.486;2022-09-01T14:02:06;0.95;;;0.95;;
13244;SDS011;6689;53.400;12.486;2022-09-01T14:04:48;0.90;;;0.90;;
13244;SDS011;6689;53.400;12.486;2022-09-01T14:10:12;0.75;;;0.75;;
13244;SDS011;6689;53.400;12.486;2022-09-01T14:12:57;0.85;;;0.85;;
13244;SDS011;6689;53.400;12.486;2022-09-01T14:15:26;0.60;;;0.60;;
13244;SDS011;6689;53.400;12.486;2022-09-01T14:18:08;0.70;;;0.70;;
13244;SDS011;6689;53.400;12.486;2022-09-01T14:20:40;0.70;;;0.70;;
13244;SDS011;6689;53.400;12.486;2022-09-01T14:23:32;0.60;;;0.60;;
13244;SDS011;6689;53.400;12.486;2022-09-01T14:26:01;0.70;;;0.70;;
13244;SDS011;6689;53.400;12.486;2022-09-01T14:28:36;0.80;;;0.80;;
13244;SDS011;6689;53.400;12.486;2022-09-01T14:31:10;0.80;;;0.80;;
13244;SDS011;6689;53.400;12.486;2022-09-01T14:33:52;0.80;;;0.80;;
13244;SDS011;6689;53.400;12.486;2022-09-01T14:36:21;0.80;;;0.80;;
13244;SDS011;6689;53.400;12.486;2022-09-01T14:38:59;0.90;;;0.90;;
13244;SDS011;6689;53.400;12.486;2022-09-01T14:41:32;0.70;;;0.70;;
13244;SDS011;6689;53.400;12.486;2022-09-01T14:44:03;0.80;;;0.80;;
13244;SDS011;6689;53.400;12.486;2022-09-01T14:46:31;0.80;;;0.80;;
13244;SDS011;6689;53.400;12.486;2022-09-01T14:49:08;0.80;;;0.80;;
13244;SDS011;6689;53.400;12.486;2022-09-01T14:51:39;0.80;;;0.80;;
13244;SDS011;6689;53.400;12.486;2022-09-01T14:54:10;0.73;;;0.73;;
13244;SDS011;6689;53.400;12.486;2022-09-01T14:56:38;0.80;;;0.80;;
13244;SDS011;6689;53.400;12.486;2022-09-01T14:59:12;0.85;;;0.85;;
13244;SDS011;6689;53.400;12.486;2022-09-01T15:01:43;0.90;;;0.90;;
13244;SDS011;6689;53.400;12.486;2022-09-01T15:04:11;0.80;;;0.80;;
13244;SDS011;6689;53.400;12.486;2022-09-01T15:06:41;0.90;;;0.90;;
13244;SDS011;6689;53.400;12.486;2022-09-01T15:09:17;0.80;;;0.80;;
13244;SDS011;6689;53.400;12.486;2022-09-01T15:12:02;0.80;;;0.80;;
13244;SDS011;6689;53.400;12.486;2022-09-01T15:14:33;0.90;;;0.90;;
13244;SDS011;6689;53.400;12.486;2022-09-01T15:17:08;0.80;;;0.80;;
13244;SDS011;6689;53.400;12.486;2022-09-01T15:19:37;0.70;;;0.70;;
13244;SDS011;6689;53.400;12.486;2022-09-01T15:22:06;0.90;;;0.90;;
13244;SDS011;6689;53.400;12.486;2022-09-01T15:24:42;0.90;;;0.90;;
13244;SDS011;6689;53.400;12.486;2022-09-01T15:27:23;0.77;;;0.77;;
13244;SDS011;6689;53.400;12.486;2022-09-01T15:29:58;0.80;;;0.80;;
13244;SDS011;6689;53.400;12.486;2022-09-01T15:32:28;0.80;;;0.80;;
13244;SDS011;6689;53.400;12.486;2022-09-01T15:35:00;0.90;;;0.90;;
13244;SDS011;6689;53.400;12.486;2022-09-01T15:37:46;0.93;;;0.93;;
13244;SDS011;6689;53.400;12.486;2022-09-01T15:40:33;0.82;;;0.82;;
13244;SDS011;6689;53.400;12.486;2022-09-01T15:43:08;0.90;;;0.90;;
13244;SDS011;6689;53.400;12.486;2022-09-01T15:45:37;0.80;;;0.80;;
13244;SDS011;6689;53.400;12.486;2022-09-01T15:48:18;0.88;;;0.88;;
13244;SDS011;6689;53.400;12.486;2022-09-01T15:50:47;0.75;;;0.75;;
13244;SDS011;6689;53.400;12.486;2022-09-01T15:53:22;0.20;;;0.20;;
13244;SDS011;6689;53.400;12.486;2022-09-01T15:55:54;0.40;;;0.40;;
13244;SDS011;6689;53.400;12.486;2022-09-01T15:58:28;0.50;;;0.50;;
13244;SDS011;6689;53.400;12.486;2022-09-01T16:00:56;0.60;;;0.60;;
13244;SDS011;6689;53.400;12.486;2022-09-01T16:03:29;0.55;;;0.55;;
13244;SDS011;6689;53.400;12.486;2022-09-01T16:06:00;0.65;;;0.65;;
13244;SDS011;6689;53.400;12.486;2022-09-01T16:08:42;0.60;;;0.60;;
13244;SDS011;6689;53.400;12.486;2022-09-01T16:11:17;0.50;;;0.50;;
13244;SDS011;6689;53.400;12.486;2022-09-01T16:13:48;0.50;;;0.50;;
13244;SDS011;6689;53.400;12.486;2022-09-01T16:16:37;0.50;;;0.50;;
13244;SDS011;6689;53.400;12.486;2022-09-01T16:19:19;0.50;;;0.50;;
13244;SDS011;6689;53.400;12.486;2022-09-01T16:21:55;0.60;;;0.60;;
13244;SDS011;6689;53.400;12.486;2022-09-01T16:24:40;0.60;;;0.60;;
13244;SDS011;6689;53.400;12.486;2022-09-01T16:27:34;0.70;;;0.70;;
13244;SDS011;6689;53.400;12.486;2022-09-01T16:30:08;0.60;;;0.60;;
13244;SDS011;6689;53.400;12.486;2022-09-01T16:32:40;0.70;;;0.70;;
13244;SDS011;6689;53.400;12.486;2022-09-01T16:35:18;0.70;;;0.70;;
13244;SDS011;6689;53.400;12.486;2022-09-01T16:38:08;0.70;;;0.70;;
13244;SDS011;6689;53.400;12.486;2022-09-01T16:40:55;0.80;;;0.80;;
13244;SDS011;6689;53.400;12.486;2022-09-01T16:43:32;0.80;;;0.80;;
13244;SDS011;6689;53.400;12.486;2022-09-01T16:46:20;0.82;;;0.82;;
13244;SDS011;6689;53.400;12.486;2022-09-01T16:48:53;0.80;;;0.80;;
13244;SDS011;6689;53.400;12.486;2022-09-01T16:51:25;0.70;;;0.70;;
13244;SDS011;6689;53.400;12.486;2022-09-01T16:54:00;0.90;;;0.90;;
13244;SDS011;6689;53.400;12.486;2022-09-01T16:56:52;0.80;;;0.80;;